Time;durP1;ratioP1;P1;durP2;ratioP2;P2;SDS_P1;SDS_P2;PMS_P1;PMS_P2;Temp;Humidity;BMP_temperature;BMP_pressure;BME280_temperature;BME280_humidity;BME280_pressure;Samples;Min_cycle;Max_cycle;Signal;HPM_P1;HPM_P2
2022/10/21 00:01:20;;;;;;;;;;;17.60;69.10;;;13.34;100.00;95465.56;5030980;28;20007;-46
2022/10/21 00:03:51;;;;;;;;;;;17.50;69.10;;;13.26;100.00;95442.94;5025145;28;19935;-46
2022/10/21 00:06:20;;;;;;;;;;;17.50;69.10;;;13.27;100.00;95417.78;5015619;28;19948;-49
2022/10/21 00:08:52;;;;;;;;;;;17.50;69.00;;;13.22;100.00;95388.38;5013454;28;19985;-47
2022/10/21 00:11:17;;;;;;;;;;;17.50;69.00;;;13.15;100.00;95374.56;5003035;28;20402;-50
2022/10/21 00:13:46;;;;;;;;;;;17.50;69.10;;;13.14;100.00;95383.66;5012281;28;19960;-46
2022/10/21 00:16:24;;;;;;;;;;;17.50;69.10;;;13.13;100.00;95377.53;5008838;28;19913;-46
2022/10/21 00:18:50;;;;;;;;;;;17.40;69.10;;;13.11;100.00;95397.59;5029741;28;19908;-47
2022/10/21 00:21:20;;;;;;;;;;;17.40;69.20;;;13.16;100.00;95418.94;5028094;28;19913;-49
2022/10/21 00:23:49;;;;;;;;;;;17.40;69.30;;;13.17;100.00;95417.88;5025049;28;19930;-46
2022/10/21 00:26:21;;;;;;;;;;;17.40;69.30;;;13.20;100.00;95422.66;5029643;28;19967;-47
2022/10/21 00:28:55;;;;;;;;;;;17.40;69.40;;;13.19;100.00;95411.16;5017915;28;19916;-46
2022/10/21 00:31:21;;;;;;;;;;;17.40;69.40;;;13.14;100.00;95391.69;5030691;28;20014;-47
2022/10/21 00:33:47;;;;;;;;;;;17.40;69.40;;;13.15;100.00;95396.75;5009626;28;19955;-46
2022/10/21 00:36:14;;;;;;;;;;;17.40;69.40;;;13.14;100.00;95397.03;5024659;28;19959;-47
2022/10/21 00:38:47;;;;;;;;;;;17.40;69.50;;;13.14;100.00;95415.75;5013038;28;19909;-46
2022/10/21 00:41:16;;;;;;;;;;;17.40;69.50;;;13.14;100.00;95419.22;4990511;28;19917;-46
2022/10/21 00:43:57;;;;;;;;;;;17.40;69.50;;;13.12;100.00;95418.69;5012418;28;19909;-46
2022/10/21 00:46:48;;;;;;;;;;;17.40;69.50;;;13.11;100.00;95429.69;5019922;28;20393;-50
2022/10/21 00:49:34;;;;;;;;;;;17.40;69.50;;;13.10;100.00;95426.22;5009303;28;19913;-48
2022/10/21 00:52:05;;;;;;;;;;;17.40;69.60;;;13.12;100.00;95409.88;5020342;28;19909;-47
2022/10/21 00:54:33;;;;;;;;;;;17.40;69.60;;;13.08;100.00;95412.34;5012967;28;19935;-46
2022/10/21 00:56:59;;;;;;;;;;;17.40;69.50;;;13.02;100.00;95388.63;5012870;28;19917;-46
2022/10/21 00:59:34;;;;;;;;;;;17.30;69.50;;;13.00;100.00;95378.19;5000145;28;20301;-49
2022/10/21 01:02:07;;;;;;;;;;;17.30;69.40;;;12.90;100.00;95367.63;5012970;28;19909;-46
2022/10/21 01:04:33;;;;;;;;;;;17.30;69.40;;;12.86;100.00;95372.72;5008067;28;20011;-47
2022/10/21 01:07:01;;;;;;;;;;;17.30;69.50;;;12.91;100.00;95380.72;5021458;28;20080;-46
2022/10/21 01:09:29;;;;;;;;;;;17.20;69.60;;;12.89;100.00;95382.06;4999382;28;19909;-46
2022/10/21 01:11:58;;;;;;;;;;;17.20;69.70;;;12.95;100.00;95396.97;5009184;28;20379;-46
2022/10/21 01:14:46;;;;;;;;;;;17.20;69.70;;;12.95;100.00;95384.41;5013155;28;19909;-49
2022/10/21 01:17:47;;;;;;;;;;;17.20;69.70;;;12.91;100.00;95382.56;4994991;28;20382;-46
2022/10/21 01:21:02;;;;;;;;;;;17.20;69.80;;;12.91;100.00;95380.72;5020886;28;20382;-46
2022/10/21 01:24:24;;;;;;;;;;;17.20;69.90;;;12.88;100.00;95375.09;4938605;28;19909;-46
2022/10/21 01:27:18;;;;;;;;;;;17.10;69.90;;;12.92;100.00;95376.94;5032225;28;19931;-49
2022/10/21 01:30:32;;;;;;;;;;;17.10;70.00;;;12.95;100.00;95379.06;4997748;28;19924;-46
2022/10/21 01:33:38;;;;;;;;;;;17.10;70.00;;;12.94;100.00;95382.00;5018042;28;19908;-50
2022/10/21 01:36:19;;;;;;;;;;;17.10;70.10;;;12.98;100.00;95391.06;4998802;28;20372;-47
2022/10/21 01:39:12;;;;;;;;;;;17.10;70.10;;;12.96;100.00;95391.34;5016567;28;19909;-46
2022/10/21 01:42:09;;;;;;;;;;;17.20;70.20;;;12.98;100.00;95411.66;5019892;28;19959;-49
2022/10/21 01:45:15;;;;;;;;;;;17.20;70.20;;;13.03;100.00;95392.88;5033776;28;19938;-46
2022/10/21 01:47:54;;;;;;;;;;;17.20;70.20;;;13.05;100.00;95388.84;5015549;28;20012;-48
2022/10/21 01:50:26;;;;;;;;;;;17.20;70.20;;;13.08;100.00;95390.94;5033611;28;19913;-46
2022/10/21 01:53:00;;;;;;;;;;;17.20;70.20;;;13.09;100.00;95394.41;5001879;28;19931;-45
2022/10/21 01:55:31;;;;;;;;;;;17.20;70.20;;;13.07;100.00;95389.38;5016091;28;20298;-47
2022/10/21 01:58:21;;;;;;;;;;;17.30;70.20;;;13.07;100.00;95397.38;5010995;28;19915;-46
2022/10/21 02:00:58;;;;;;;;;;;17.30;70.20;;;13.04;100.00;95365.06;5026323;28;19943;-46
2022/10/21 02:03:36;;;;;;;;;;;17.30;70.10;;;13.07;100.00;95369.84;5013892;28;20011;-49
2022/10/21 02:06:03;;;;;;;;;;;17.30;70.10;;;13.07;100.00;95357.28;5005188;28;19958;-46
2022/10/21 02:08:41;;;;;;;;;;;17.30;70.10;;;13.10;100.00;95364.72;5015844;28;19966;-45
2022/10/21 02:11:11;;;;;;;;;;;17.30;70.10;;;13.10;100.00;95347.84;5004706;28;19909;-49
2022/10/21 02:13:53;;;;;;;;;;;17.20;70.10;;;13.09;100.00;95332.91;5033209;28;19913;-48
2022/10/21 02:16:27;;;;;;;;;;;17.20;70.10;;;13.10;100.00;95345.19;5002864;28;20004;-45
2022/10/21 02:18:55;;;;;;;;;;;17.30;70.20;;;13.09;100.00;95354.31;5025918;28;19966;-48
2022/10/21 02:21:33;;;;;;;;;;;17.20;70.20;;;13.06;100.00;95355.66;5029647;28;19912;-50
2022/10/21 02:24:24;;;;;;;;;;;17.30;70.10;;;13.05;100.00;95342.59;5015035;28;20008;-46
2022/10/21 02:26:53;;;;;;;;;;;17.20;70.10;;;13.05;100.00;95335.38;5004226;28;20421;-47
2022/10/21 02:29:27;;;;;;;;;;;17.20;70.10;;;13.06;100.00;95323.56;5013441;28;19916;-46
2022/10/21 02:32:15;;;;;;;;;;;17.20;70.10;;;13.04;100.00;95319.63;5032943;28;19966;-49
2022/10/21 02:35:24;;;;;;;;;;;17.20;70.10;;;12.98;100.00;95299.38;5003690;28;19909;-47
2022/10/21 02:38:02;;;;;;;;;;;17.20;70.10;;;12.93;100.00;95279.63;5017325;28;19915;-50
2022/10/21 02:40:59;;;;;;;;;;;17.10;70.10;;;12.85;100.00;95268.75;5012400;28;20289;-46
2022/10/21 02:43:55;;;;;;;;;;;17.10;70.10;;;12.82;100.00;95275.50;5015010;28;19909;-46
2022/10/21 02:46:21;;;;;;;;;;;17.10;70.20;;;12.88;100.00;95266.34;5025199;28;19916;-48
2022/10/21 02:49:00;;;;;;;;;;;17.10;70.40;;;12.91;100.00;95272.97;5015103;28;20294;-46
2022/10/21 02:51:26;;;;;;;;;;;17.10;70.50;;;12.94;100.00;95281.22;5028109;28;19909;-47
2022/10/21 02:53:55;;;;;;;;;;;17.10;70.50;;;12.99;100.00;95283.03;5002147;28;19909;-47
2022/10/21 02:56:29;;;;;;;;;;;17.10;70.60;;;12.99;100.00;95284.91;5031063;28;19939;-49
2022/10/21 02:58:55;;;;;;;;;;;17.10;70.60;;;13.00;100.00;95294.50;5024181;28;19958;-46
2022/10/21 03:01:21;;;;;;;;;;;17.20;70.60;;;12.98;100.00;95296.69;5032001;28;19917;-46
2022/10/21 03:03:55;;;;;;;;;;;17.20;70.50;;;12.93;100.00;95308.22;5021897;28;19971;-46
2022/10/21 03:06:21;;;;;;;;;;;17.20;70.40;;;12.95;100.00;95314.09;5012136;28;19909;-46
2022/10/21 03:08:53;;;;;;;;;;;17.20;70.40;;;12.95;100.00;95298.06;5032677;28;19958;-46
2022/10/21 03:11:19;;;;;;;;;;;17.20;70.40;;;12.98;100.00;95294.81;5016133;28;19913;-46
2022/10/21 03:13:48;;;;;;;;;;;17.20;70.40;;;12.99;100.00;95290.25;5030805;28;20724;-46
2022/10/21 03:16:16;;;;;;;;;;;17.20;70.40;;;12.96;100.00;95289.75;5027023;28;19913;-48
2022/10/21 03:18:54;;;;;;;;;;;17.20;70.40;;;12.96;100.00;95281.72;5032293;28;19908;-47
2022/10/21 03:21:19;;;;;;;;;;;17.20;70.40;;;12.98;100.00;95291.34;5028808;28;19919;-50
2022/10/21 03:23:48;;;;;;;;;;;17.20;70.40;;;13.00;100.00;95279.25;5016227;28;19909;-46
2022/10/21 03:26:20;;;;;;;;;;;17.20;70.40;;;12.96;100.00;95272.91;5031858;28;20238;-47
2022/10/21 03:28:46;;;;;;;;;;;17.20;70.40;;;12.98;100.00;95281.44;5017596;28;20283;-46
2022/10/21 03:31:26;;;;;;;;;;;17.20;70.40;;;12.98;100.00;95278.78;5031407;28;19908;-46
2022/10/21 03:33:55;;;;;;;;;;;17.20;70.40;;;12.95;100.00;95272.13;5026885;28;20279;-46
2022/10/21 03:36:21;;;;;;;;;;;17.20;70.40;;;12.99;100.00;95274.22;5025019;28;19962;-46
2022/10/21 03:38:50;;;;;;;;;;;17.20;70.50;;;13.03;100.00;95292.06;5030305;28;19912;-47
2022/10/21 03:41:24;;;;;;;;;;;17.20;70.50;;;13.03;100.00;95296.63;5016499;28;19963;-46
2022/10/21 03:43:50;;;;;;;;;;;17.20;70.60;;;13.03;100.00;95284.03;5031758;28;20333;-47
2022/10/21 03:46:21;;;;;;;;;;;17.20;70.60;;;13.01;100.00;95258.69;5022655;28;19909;-48
2022/10/21 03:48:47;;;;;;;;;;;17.20;70.50;;;13.01;100.00;95256.81;5008935;28;20375;-48
2022/10/21 03:51:15;;;;;;;;;;;17.20;70.50;;;13.03;100.00;95272.56;5030959;28;19912;-46
2022/10/21 03:53:41;;;;;;;;;;;17.20;70.60;;;13.02;100.00;95270.97;5015631;28;20279;-46
2022/10/21 03:56:12;;;;;;;;;;;17.20;70.50;;;13.00;100.00;95265.91;4999658;28;19932;-47
2022/10/21 03:58:44;;;;;;;;;;;17.20;70.50;;;12.97;100.00;95255.78;5001567;28;19915;-46
2022/10/21 04:01:13;;;;;;;;;;;17.30;70.60;;;12.99;100.00;95263.53;5011057;28;19913;-49
2022/10/21 04:03:40;;;;;;;;;;;17.20;70.60;;;13.03;100.00;95249.28;5005604;28;19947;-47
2022/10/21 04:06:06;;;;;;;;;;;17.20;70.60;;;12.98;100.00;95249.38;5004187;28;19909;-46
2022/10/21 04:08:32;;;;;;;;;;;17.20;70.60;;;12.95;100.00;95257.97;5011460;28;19909;-48
2022/10/21 04:11:04;;;;;;;;;;;17.20;70.70;;;12.98;100.00;95246.69;4991517;28;19915;-46
2022/10/21 04:13:31;;;;;;;;;;;17.20;70.70;;;13.00;100.00;95249.06;5010235;28;19916;-46
2022/10/21 04:16:04;;;;;;;;;;;17.20;70.70;;;13.02;100.00;95233.53;5004966;28;19963;-47
2022/10/21 04:18:48;;;;;;;;;;;17.20;70.70;;;13.07;100.00;95236.16;5010202;28;19909;-46
2022/10/21 04:21:18;;;;;;;;;;;17.20;70.70;;;13.08;100.00;95227.03;5009244;28;19921;-46
2022/10/21 04:23:44;;;;;;;;;;;17.20;70.80;;;13.08;100.00;95222.50;5001548;28;20457;-46
2022/10/21 04:26:19;;;;;;;;;;;17.30;70.80;;;13.03;100.00;95211.06;5009630;28;19940;-46
2022/10/21 04:28:48;;;;;;;;;;;17.30;70.80;;;13.03;100.00;95217.19;4997379;28;19910;-46
2022/10/21 04:31:16;;;;;;;;;;;17.30;70.80;;;13.01;100.00;95200.66;5009547;28;20006;-46
2022/10/21 04:33:54;;;;;;;;;;;17.20;70.70;;;12.98;100.00;95187.88;5006681;28;20443;-46
2022/10/21 04:36:23;;;;;;;;;;;17.20;70.70;;;12.99;100.00;95204.72;4986323;28;19916;-46
2022/10/21 04:38:52;;;;;;;;;;;17.20;70.80;;;12.96;100.00;95200.72;5007004;28;19918;-47
2022/10/21 04:41:18;;;;;;;;;;;17.20;70.80;;;12.99;100.00;95200.16;4991674;28;19940;-48
2022/10/21 04:43:43;;;;;;;;;;;17.20;70.80;;;12.98;100.00;95195.09;5006228;28;19917;-47
2022/10/21 04:46:13;;;;;;;;;;;17.20;70.80;;;13.00;100.00;95191.03;5000676;28;19949;-47
2022/10/21 04:48:39;;;;;;;;;;;17.20;70.80;;;13.00;100.00;95183.00;5006539;28;19947;-48
2022/10/21 04:51:08;;;;;;;;;;;17.20;70.80;;;12.92;100.00;95152.41;5009169;28;20004;-49
2022/10/21 04:53:34;;;;;;;;;;;17.20;70.70;;;12.85;100.00;95153.81;4992759;28;20024;-47
2022/10/21 04:56:03;;;;;;;;;;;17.20;70.70;;;12.76;100.00;95136.88;5010962;28;20355;-48
2022/10/21 04:58:32;;;;;;;;;;;17.10;70.60;;;12.82;100.00;95123.16;4999219;28;19909;-46
2022/10/21 05:01:12;;;;;;;;;;;17.10;70.60;;;12.80;100.00;95119.16;5010639;28;20299;-46
2022/10/21 05:03:44;;;;;;;;;;;17.10;70.70;;;12.80;100.00;95117.28;5003155;28;19925;-51
2022/10/21 05:06:10;;;;;;;;;;;17.10;70.80;;;12.83;100.00;95116.72;5004583;28;19913;-46
2022/10/21 05:08:35;;;;;;;;;;;17.10;70.80;;;12.80;100.00;95119.16;5009473;28;19959;-47
2022/10/21 05:11:02;;;;;;;;;;;17.00;70.80;;;12.80;100.00;95119.16;4996115;28;20338;-47
2022/10/21 05:13:29;;;;;;;;;;;17.00;70.80;;;12.81;100.00;95120.75;5009363;28;19912;-47
2022/10/21 05:16:22;;;;;;;;;;;17.00;70.80;;;12.84;100.00;95130.88;5004007;28;19955;-49
2022/10/21 05:18:51;;;;;;;;;;;17.00;70.90;;;12.84;100.00;95120.97;5006490;28;19913;-47
2022/10/21 05:21:19;;;;;;;;;;;17.00;70.90;;;12.84;100.00;95130.88;5008629;28;19913;-48
2022/10/21 05:23:54;;;;;;;;;;;17.00;70.90;;;12.83;100.00;95140.75;5001640;28;20363;-53
2022/10/21 05:26:23;;;;;;;;;;;17.00;70.90;;;12.83;100.00;95146.09;5025919;28;19909;-49
2022/10/21 05:28:51;;;;;;;;;;;17.10;71.00;;;12.84;100.00;95153.03;4992529;28;20012;-54
2022/10/21 05:31:17;;;;;;;;;;;17.10;70.90;;;12.85;100.00;95159.16;5025168;28;20307;-52
2022/10/21 05:33:57;;;;;;;;;;;17.10;70.90;;;12.86;100.00;95155.44;5004803;28;19913;-49
2022/10/21 05:36:26;;;;;;;;;;;17.10;70.90;;;12.84;100.00;95152.25;4988893;28;19909;-50
2022/10/21 05:38:55;;;;;;;;;;;17.10;70.90;;;12.85;100.00;95160.00;5010484;28;19909;-47
2022/10/21 05:41:21;;;;;;;;;;;17.10;70.90;;;12.85;100.00;95156.50;4991700;28;19918;-48
2022/10/21 05:43:47;;;;;;;;;;;17.10;70.90;;;12.85;100.00;95143.13;4991887;28;19920;-46
2022/10/21 05:46:19;;;;;;;;;;;17.10;70.90;;;12.81;100.00;95134.13;5017908;28;20047;-49
2022/10/21 05:48:47;;;;;;;;;;;17.10;70.90;;;12.81;100.00;95129.56;5007170;28;20335;-48
2022/10/21 05:51:13;;;;;;;;;;;17.10;70.90;;;12.83;100.00;95122.06;4991928;28;20005;-47
2022/10/21 05:53:38;;;;;;;;;;;17.10;70.90;;;12.82;100.00;95112.47;5001037;28;20027;-47
2022/10/21 05:56:07;;;;;;;;;;;17.10;70.80;;;12.82;100.00;95111.66;5015134;28;19924;-47
2022/10/21 05:58:42;;;;;;;;;;;17.10;70.80;;;12.80;100.00;95103.94;5005832;28;20382;-46
2022/10/21 06:01:12;;;;;;;;;;;17.10;70.80;;;12.79;100.00;95104.22;5029532;28;19959;-49
2022/10/21 06:03:54;;;;;;;;;;;17.10;70.80;;;12.77;100.00;95103.72;5008769;28;19909;-46
2022/10/21 06:06:23;;;;;;;;;;;17.10;70.80;;;12.76;100.00;95102.13;5007299;28;19909;-46
2022/10/21 06:08:48;;;;;;;;;;;17.10;70.80;;;12.74;100.00;95108.53;5030042;28;19909;-47
2022/10/21 06:11:17;;;;;;;;;;;17.00;70.80;;;12.75;100.00;95114.69;5015167;28;20097;-50
2022/10/21 06:13:44;;;;;;;;;;;17.00;70.90;;;12.76;100.00;95126.19;5015837;28;19912;-50
2022/10/21 06:16:15;;;;;;;;;;;17.10;70.90;;;12.76;100.00;95143.00;5008330;28;19910;-50
2022/10/21 06:18:44;;;;;;;;;;;17.10;70.90;;;12.77;100.00;95174.00;5032255;28;19916;-50
2022/10/21 06:21:15;;;;;;;;;;;17.10;70.90;;;12.76;100.00;95209.03;5032656;28;19916;-49
2022/10/21 06:23:52;;;;;;;;;;;17.10;71.00;;;12.74;100.00;95244.03;5006412;28;19909;-52
2022/10/21 06:26:24;;;;;;;;;;;17.10;70.90;;;12.73;100.00;95263.84;5030368;28;19912;-47
2022/10/21 06:28:49;;;;;;;;;;;17.10;71.00;;;12.73;100.00;95287.91;5009182;28;20003;-48
2022/10/21 06:31:20;;;;;;;;;;;17.10;71.00;;;12.73;100.00;95291.34;5032270;28;20015;-51
2022/10/21 06:33:46;;;;;;;;;;;17.00;71.00;;;12.71;100.00;95309.53;5026992;28;20157;-46
2022/10/21 06:36:13;;;;;;;;;;;17.00;71.10;;;12.73;100.00;95318.09;5009088;28;19909;-46
2022/10/21 06:38:45;;;;;;;;;;;17.00;71.20;;;12.74;100.00;95319.66;5022464;28;20363;-49
2022/10/21 06:41:17;;;;;;;;;;;17.00;71.20;;;12.77;100.00;95329.00;5020207;28;19913;-47
2022/10/21 06:43:43;;;;;;;;;;;17.00;71.30;;;12.80;100.00;95338.31;5010463;28;19928;-47
2022/10/21 06:46:14;;;;;;;;;;;17.00;71.40;;;12.85;100.00;95351.63;5017191;28;19909;-48
2022/10/21 06:48:43;;;;;;;;;;;17.00;71.40;;;12.84;100.00;95347.38;5026200;28;19932;-50
2022/10/21 06:51:17;;;;;;;;;;;17.00;71.50;;;12.89;100.00;95340.09;5029460;28;19936;-47
2022/10/21 06:53:44;;;;;;;;;;;17.00;71.50;;;12.94;100.00;95326.69;5010100;28;19908;-47
2022/10/21 06:56:16;;;;;;;;;;;17.00;71.50;;;12.90;100.00;95285.53;4998693;28;19924;-52
2022/10/21 06:58:46;;;;;;;;;;;17.10;71.60;;;12.87;100.00;95254.03;4982981;28;19912;-49
2022/10/21 07:01:45;;;;;;;;;;;17.10;71.50;;;12.84;100.00;95190.44;5015071;28;19952;-46
2022/10/21 07:04:13;;;;;;;;;;;17.10;71.40;;;12.79;100.00;95206.56;5023163;28;19954;-46
2022/10/21 07:06:42;;;;;;;;;;;17.10;71.40;;;12.78;100.00;95223.69;5025712;28;19909;-51
2022/10/21 07:09:08;;;;;;;;;;;17.10;71.40;;;12.77;100.00;95216.75;5013392;28;19913;-50
2022/10/21 07:11:35;;;;;;;;;;;17.10;71.50;;;12.73;100.00;95216.53;5017049;28;19920;-50
2022/10/21 07:14:16;;;;;;;;;;;17.10;71.50;;;12.83;100.00;95220.94;5014627;28;20363;-46
2022/10/21 07:16:46;;;;;;;;;;;17.10;71.50;;;12.92;100.00;95226.47;5023218;28;20420;-48
2022/10/21 07:19:21;;;;;;;;;;;17.10;71.50;;;12.98;100.00;95230.66;5014642;28;19908;-51
2022/10/21 07:21:53;;;;;;;;;;;17.10;71.60;;;12.99;100.00;95231.44;5026629;28;20011;-48
2022/10/21 07:24:18;;;;;;;;;;;17.20;71.60;;;13.03;100.00;95233.25;5021717;28;19914;-47
2022/10/21 07:26:44;;;;;;;;;;;17.20;71.60;;;13.05;100.00;95235.63;5030123;28;19943;-47
2022/10/21 07:29:17;;;;;;;;;;;17.30;71.60;;;13.04;100.00;95245.53;5009909;28;19909;-46
2022/10/21 07:31:46;;;;;;;;;;;17.40;71.60;;;13.10;100.00;95259.63;5013875;28;19947;-48
2022/10/21 07:34:24;;;;;;;;;;;17.40;71.50;;;13.15;100.00;95265.69;5007321;28;19917;-46
2022/10/21 07:36:53;;;;;;;;;;;17.50;71.50;;;13.24;100.00;95267.75;5002481;28;19913;-51
2022/10/21 07:39:26;;;;;;;;;;;17.50;71.40;;;13.30;100.00;95270.09;5014238;28;19983;-48
2022/10/21 07:41:57;;;;;;;;;;;17.60;71.40;;;13.35;100.00;95261.19;5019389;28;19909;-49
2022/10/21 07:44:25;;;;;;;;;;;17.70;71.40;;;13.40;100.00;95261.13;5013934;28;19915;-47
2022/10/21 07:46:54;;;;;;;;;;;17.70;71.30;;;13.42;100.00;95283.03;5011179;28;19951;-46
2022/10/21 07:49:21;;;;;;;;;;;17.80;71.30;;;13.41;100.00;95276.06;5032239;28;19916;-47
2022/10/21 07:51:49;;;;;;;;;;;17.80;71.20;;;13.46;100.00;95259.16;5001381;28;20314;-46
2022/10/21 07:54:16;;;;;;;;;;;17.90;71.20;;;13.51;100.00;95257.22;4991130;28;19919;-52
2022/10/21 07:56:47;;;;;;;;;;;18.00;71.10;;;13.58;100.00;95262.19;5013450;28;19923;-47
2022/10/21 07:59:16;;;;;;;;;;;18.10;71.00;;;13.66;100.00;95269.56;5003807;28;19909;-49
2022/10/21 08:01:44;;;;;;;;;;;18.20;71.00;;;13.74;100.00;95276.13;5031158;28;19913;-48
2022/10/21 08:04:23;;;;;;;;;;;18.30;70.90;;;13.77;100.00;95284.38;5008484;28;19935;-47
2022/10/21 08:06:49;;;;;;;;;;;18.30;70.80;;;13.78;100.00;95282.50;5030373;28;19915;-50
2022/10/21 08:09:18;;;;;;;;;;;18.40;70.70;;;13.75;100.00;95297.25;5013445;28;19913;-47
2022/10/21 08:11:50;;;;;;;;;;;18.50;70.70;;;13.80;100.00;95299.06;4994673;28;19928;-46
2022/10/21 08:14:18;;;;;;;;;;;18.50;70.60;;;13.75;100.00;95304.50;5013523;28;19912;-47
2022/10/21 08:16:52;;;;;;;;;;;18.50;70.50;;;13.74;100.00;95316.28;5018956;28;19952;-48
2022/10/21 08:19:22;;;;;;;;;;;18.50;70.50;;;13.76;100.00;95330.19;4977490;28;19945;-47
2022/10/21 08:21:57;;;;;;;;;;;18.50;70.30;;;13.77;100.00;95342.47;4991119;28;19963;-47
2022/10/21 08:24:27;;;;;;;;;;;18.60;70.30;;;13.84;100.00;95369.66;4974467;28;19971;-47
2022/10/21 08:26:58;;;;;;;;;;;18.60;70.30;;;13.77;100.00;95460.25;4985644;28;19916;-48
2022/10/21 08:29:27;;;;;;;;;;;18.60;70.40;;;13.64;100.00;95472.47;4989411;28;19913;-52
2022/10/21 08:31:56;;;;;;;;;;;18.50;70.40;;;13.68;100.00;95470.00;4990069;28;19992;-47
2022/10/21 08:34:22;;;;;;;;;;;18.30;70.50;;;13.68;100.00;95484.19;4998011;28;20025;-49
2022/10/21 08:36:55;;;;;;;;;;;18.20;70.70;;;13.71;100.00;95470.22;5007944;28;19912;-49
2022/10/21 08:39:23;;;;;;;;;;;18.20;71.00;;;13.79;100.00;95466.94;4974380;28;19916;-47
2022/10/21 08:42:19;;;;;;;;;;;18.10;71.00;;;13.85;100.00;95454.25;4992729;28;19910;-48
2022/10/21 08:45:00;;;;;;;;;;;18.10;71.10;;;13.86;100.00;95453.97;4974042;28;20063;-52
2022/10/21 08:47:32;;;;;;;;;;;18.20;71.20;;;13.91;100.00;95444.28;5006716;28;19916;-49
2022/10/21 08:50:27;;;;;;;;;;;18.20;71.30;;;13.93;100.00;95448.25;5010654;28;19996;-51
2022/10/21 08:53:45;;;;;;;;;;;18.20;71.30;;;14.04;100.00;95452.41;4986531;28;19941;-48
2022/10/21 08:56:20;;;;;;;;;;;18.30;71.40;;;14.05;100.00;95442.47;5003734;23;19928;-52
2022/10/21 08:58:51;;;;;;;;;;;18.30;71.40;;;14.11;100.00;95446.69;4972967;28;20303;-49
2022/10/21 09:01:43;;;;;;;;;;;18.30;71.50;;;14.15;100.00;95449.56;4984818;28;19918;-46
2022/10/21 09:05:02;;;;;;;;;;;18.40;71.40;;;14.21;100.00;95449.22;4972792;28;19918;-46
2022/10/21 09:08:05;;;;;;;;;;;18.40;71.30;;;14.24;100.00;95453.19;4985384;28;20008;-50
2022/10/21 09:10:52;;;;;;;;;;;18.50;71.30;;;14.29;100.00;95459.28;4975039;28;19916;-49
2022/10/21 09:14:05;;;;;;;;;;;18.60;71.30;;;14.29;100.00;95459.28;4991084;28;20383;-47
2022/10/21 09:17:17;;;;;;;;;;;18.60;71.30;;;14.31;100.00;95464.34;4997833;28;19988;-47
2022/10/21 09:20:01;;;;;;;;;;;18.60;71.20;;;14.30;100.00;95462.75;4991102;28;19910;-46
2022/10/21 09:23:51;;;;;;;;;;;18.60;71.30;;;14.10;100.00;95453.94;4991707;28;19916;-46
2022/10/21 09:26:49;;;;;;;;;;;18.60;71.10;;;14.12;100.00;95453.63;4957508;28;19916;-49
2022/10/21 09:29:27;;;;;;;;;;;18.60;71.20;;;14.02;100.00;95454.56;4972249;28;19913;-45
2022/10/21 09:32:10;;;;;;;;;;;18.60;71.20;;;14.01;100.00;95457.53;4969186;28;19913;-46
2022/10/21 09:35:23;;;;;;;;;;;18.50;71.10;;;14.14;100.00;95466.75;4958579;28;20273;-48
2022/10/21 09:38:28;;;;;;;;;;;18.50;71.20;;;14.22;100.00;95471.44;4976370;28;20012;-46
2022/10/21 09:41:02;;;;;;;;;;;18.50;71.30;;;14.23;100.00;95476.50;4985126;28;19920;-46
2022/10/21 09:43:28;;;;;;;;;;;18.50;71.30;;;14.27;100.00;95476.72;4972884;28;19913;-46
2022/10/21 09:45:56;;;;;;;;;;;18.60;71.40;;;14.23;100.00;95481.06;4963006;28;20627;-46
2022/10/21 09:48:51;;;;;;;;;;;18.60;71.40;;;14.27;100.00;95480.19;4967500;28;20359;-46
2022/10/21 09:51:28;;;;;;;;;;;18.60;71.30;;;14.34;100.00;95474.47;4972438;28;19941;-46
2022/10/21 09:54:10;;;;;;;;;;;18.70;71.40;;;14.38;100.00;95478.16;4985157;28;19913;-46
2022/10/21 09:56:51;;;;;;;;;;;18.70;71.20;;;14.39;100.00;95470.94;4979638;28;26618;-46
2022/10/21 09:59:22;;;;;;;;;;;18.70;71.10;;;14.41;100.00;95468.75;4972733;28;19949;-46
2022/10/21 10:01:51;;;;;;;;;;;18.80;71.20;;;14.45;100.00;95472.44;4971086;28;19914;-48
2022/10/21 10:04:34;;;;;;;;;;;18.80;71.20;;;14.47;100.00;95464.91;4954119;28;20016;-47
2022/10/21 10:07:18;;;;;;;;;;;18.80;71.10;;;14.52;100.00;95462.97;4987055;28;20388;-47
2022/10/21 10:09:50;;;;;;;;;;;18.90;71.20;;;14.52;100.00;95464.84;4971744;28;20032;-50
2022/10/21 10:12:27;;;;;;;;;;;18.90;71.10;;;14.54;100.00;95451.94;4963895;28;19924;-48
2022/10/21 10:15:01;;;;;;;;;;;18.90;71.00;;;14.54;100.00;95454.63;4974079;28;20016;-46
2022/10/21 10:17:35;;;;;;;;;;;18.90;71.00;;;14.55;100.00;95445.50;4972209;28;19913;-48
2022/10/21 10:20:19;;;;;;;;;;;18.90;71.00;;;14.62;100.00;95453.97;4974537;28;19914;-48
2022/10/21 10:23:03;;;;;;;;;;;19.00;71.00;;;14.67;100.00;95461.16;4967230;28;20352;-48
2022/10/21 10:25:37;;;;;;;;;;;19.00;71.80;;;14.66;100.00;95457.66;4973906;28;19926;-48
2022/10/21 10:28:09;;;;;;;;;;;19.10;71.00;;;14.65;100.00;95472.16;4976819;28;20402;-46
2022/10/21 10:30:41;;;;;;;;;;;19.10;70.90;;;14.69;100.00;95459.75;4978807;28;19944;-47
2022/10/21 10:33:34;;;;;;;;;;;19.00;70.80;;;14.71;100.00;95456.78;4965079;28;20353;-46
2022/10/21 10:36:06;;;;;;;;;;;19.10;71.00;;;14.72;100.00;95463.72;4957094;28;19918;-46
2022/10/21 10:38:41;;;;;;;;;;;19.00;70.80;;;14.68;100.00;95460.84;4983504;28;19968;-47
2022/10/21 10:41:15;;;;;;;;;;;19.00;70.90;;;14.70;100.00;95445.28;4971980;28;20016;-46
2022/10/21 10:43:54;;;;;;;;;;;19.00;70.80;;;14.71;100.00;95449.53;4988983;28;20012;-47
2022/10/21 10:46:30;;;;;;;;;;;19.10;70.90;;;14.71;100.00;95464.81;4971282;28;19933;-46
2022/10/21 10:49:21;;;;;;;;;;;19.10;70.90;;;14.72;100.00;95453.00;4972889;28;19916;-46
2022/10/21 10:52:04;;;;;;;;;;;19.10;70.90;;;14.72;100.00;95450.31;4972561;28;20413;-48
2022/10/21 10:54:30;;;;;;;;;;;19.10;70.90;;;14.73;100.00;95454.63;4953532;28;19918;-48
2022/10/21 10:57:25;;;;;;;;;;;19.00;70.80;;;14.72;100.00;95451.13;4969726;28;19952;-47
2022/10/21 11:00:21;;;;;;;;;;;19.10;70.80;;;14.78;100.00;95446.47;4986446;28;20269;-47
2022/10/21 11:02:53;;;;;;;;;;;19.20;70.80;;;14.81;100.00;95448.56;4972527;28;19917;-46
2022/10/21 11:05:54;;;;;;;;;;;19.20;70.70;;;14.79;100.00;95450.72;4972849;28;19963;-46
2022/10/21 11:08:57;;;;;;;;;;;19.20;70.60;;;14.84;100.00;95439.13;4972800;28;19910;-46
2022/10/21 11:11:44;;;;;;;;;;;19.20;70.60;;;14.81;100.00;95438.63;4961106;28;20365;-48
2022/10/21 11:14:18;;;;;;;;;;;19.20;70.60;;;14.87;100.00;95441.22;4988600;28;19972;-48
2022/10/21 11:17:11;;;;;;;;;;;19.30;70.70;;;14.90;100.00;95452.16;4971239;28;19917;-47
2022/10/21 11:19:57;;;;;;;;;;;19.30;70.70;;;14.92;100.00;95444.63;4968830;28;20325;-52
2022/10/21 11:22:55;;;;;;;;;;;19.30;70.70;;;14.97;100.00;95446.41;4970024;28;19910;-46
2022/10/21 11:25:53;;;;;;;;;;;19.30;70.80;;;15.01;100.00;95442.84;4968934;28;19910;-51
2022/10/21 11:28:51;;;;;;;;;;;19.40;70.80;;;15.05;100.00;95445.75;4971268;28;20356;-46
2022/10/21 11:31:43;;;;;;;;;;;19.50;70.80;;;14.98;100.00;95439.97;4973423;28;20044;-46
2022/10/21 11:34:21;;;;;;;;;;;19.50;70.60;;;14.99;100.00;95434.31;4967703;28;19910;-48
2022/10/21 11:37:32;;;;;;;;;;;19.50;70.50;;;14.92;100.00;95438.47;4982150;28;19956;-46
2022/10/21 11:40:39;;;;;;;;;;;19.50;70.40;;;14.87;100.00;95454.63;4972266;28;19960;-46
2022/10/21 11:43:48;;;;;;;;;;;19.40;70.30;;;14.97;100.00;95460.59;4957764;28;19917;-46
2022/10/21 11:46:57;;;;;;;;;;;19.40;70.40;;;15.01;100.00;95469.69;4956824;28;19925;-47
2022/10/21 11:50:12;;;;;;;;;;;19.50;70.40;;;15.08;100.00;95469.28;4988012;28;19955;-47
2022/10/21 11:52:49;;;;;;;;;;;19.50;70.50;;;15.13;100.00;95463.03;4971747;28;19972;-49